BAW371 LFBO-EGLL
Flight info
| Callsign | BAW371 |
|---|---|
| Flight time | 1h 21m |
| Altitude | 34000 |
| Route | LACOU DCT CHALA DCT CNA DCT MANAK DCT EPAPU DCT RINSO DCT EKRAS DCT REVTU DCT BOLRO UP87 ROXOG |
| Aircraft | A35K/H-SDE2E3GHIJ3J4J5LM1ORWXY/LB1D1 |
Departure
| Time | 2026-05-07 07:45 |
|---|---|
| Airport | Toulouse-Blagnac Airport (LFBO) |
Arrival
| Time | 2026-05-07 09:06 |
|---|---|
| Airport | London Heathrow Airport (EGLL) |
| Time | Latitude | Longitude | Altitude | Speed | Heading |
|---|---|---|---|---|---|
| 2026-05-07 07:18 | 43.62010 | 1.36357 | 500 ft | 0 kts | 93° |
| 2026-05-07 07:37 | 43.62010 | 1.36345 | 500 ft | 4 kts | 93° |
| 2026-05-07 07:37 | 43.62011 | 1.36310 | 500 ft | 2 kts | 93° |
| 2026-05-07 07:37 | 43.62010 | 1.36280 | 500 ft | 4 kts | 57° |
| 2026-05-07 07:37 | 43.61991 | 1.36259 | 500 ft | 4 kts | 15° |
| 2026-05-07 07:38 | 43.61966 | 1.36254 | 500 ft | 4 kts | 3° |
| 2026-05-07 07:38 | 43.61940 | 1.36253 | 500 ft | 3 kts | 3° |
| 2026-05-07 07:38 | 43.61936 | 1.36252 | 500 ft | 0 kts | 3° |
| 2026-05-07 07:41 | 43.61942 | 1.36253 | 500 ft | 3 kts | 4° |
| 2026-05-07 07:41 | 43.61985 | 1.36256 | 500 ft | 9 kts | 3° |
| 2026-05-07 07:41 | 43.62066 | 1.36262 | 500 ft | 14 kts | 3° |
| 2026-05-07 07:41 | 43.62157 | 1.36285 | 500 ft | 7 kts | 35° |
| 2026-05-07 07:42 | 43.62161 | 1.36289 | 500 ft | 1 kts | 39° |
| 2026-05-07 07:42 | 43.62174 | 1.36339 | 500 ft | 9 kts | 86° |
| 2026-05-07 07:42 | 43.62171 | 1.36449 | 500 ft | 14 kts | 92° |
| 2026-05-07 07:42 | 43.62152 | 1.36605 | 500 ft | 19 kts | 116° |
| 2026-05-07 07:43 | 43.62047 | 1.36741 | 500 ft | 23 kts | 143° |
| 2026-05-07 07:43 | 43.61934 | 1.36872 | 500 ft | 17 kts | 120° |
| 2026-05-07 07:43 | 43.61969 | 1.37024 | 500 ft | 20 kts | 42° |
| 2026-05-07 07:43 | 43.62059 | 1.37042 | 500 ft | 12 kts | 323° |
| 2026-05-07 07:44 | 43.62069 | 1.37032 | 500 ft | 0 kts | 322° |
| 2026-05-07 07:44 | 43.62274 | 1.36816 | 500 ft | 85 kts | 323° |
| 2026-05-07 07:44 | 43.62984 | 1.36079 | 509 ft | 167 kts | 323° |
| 2026-05-07 07:45 | 43.63934 | 1.35060 | 1383 ft | 173 kts | 321° |
| 2026-05-07 07:45 | 43.64884 | 1.33979 | 2385 ft | 185 kts | 321° |
| 2026-05-07 07:45 | 43.65989 | 1.32822 | 2988 ft | 212 kts | 323° |
| 2026-05-07 07:45 | 43.67244 | 1.31563 | 3688 ft | 236 kts | 323° |
| 2026-05-07 07:46 | 43.68626 | 1.30160 | 4415 ft | 255 kts | 323° |
| 2026-05-07 07:46 | 43.70067 | 1.28671 | 5372 ft | 261 kts | 322° |
| 2026-05-07 07:46 | 43.71541 | 1.27231 | 6742 ft | 261 kts | 327° |
| 2026-05-07 07:46 | 43.73246 | 1.26297 | 8047 ft | 268 kts | 342° |
| 2026-05-07 07:47 | 43.75073 | 1.25676 | 9357 ft | 273 kts | 344° |
| 2026-05-07 07:47 | 43.76929 | 1.25029 | 10613 ft | 279 kts | 340° |
| 2026-05-07 07:47 | 43.78815 | 1.24010 | 11336 ft | 305 kts | 334° |
| 2026-05-07 07:47 | 43.80835 | 1.22706 | 11931 ft | 333 kts | 333° |
| 2026-05-07 07:48 | 43.82974 | 1.21291 | 12907 ft | 346 kts | 333° |
| 2026-05-07 07:48 | 43.85174 | 1.19841 | 14012 ft | 354 kts | 334° |
| 2026-05-07 07:48 | 43.87428 | 1.18355 | 15009 ft | 363 kts | 333° |
| 2026-05-07 07:48 | 43.89733 | 1.16840 | 15986 ft | 371 kts | 333° |
| 2026-05-07 07:49 | 43.92090 | 1.15293 | 16981 ft | 379 kts | 333° |
| 2026-05-07 07:49 | 43.93679 | 1.14247 | 17638 ft | 384 kts | 333° |
| 2026-05-07 07:49 | 43.96118 | 1.12641 | 18621 ft | 392 kts | 333° |
| 2026-05-07 07:49 | 43.98608 | 1.11007 | 19582 ft | 399 kts | 333° |
| 2026-05-07 07:50 | 44.01956 | 1.08806 | 20925 ft | 406 kts | 333° |
| 2026-05-07 07:50 | 44.04524 | 1.07113 | 21954 ft | 411 kts | 333° |
| 2026-05-07 07:50 | 44.07128 | 1.05396 | 22924 ft | 418 kts | 333° |
| 2026-05-07 07:50 | 44.09771 | 1.03650 | 23866 ft | 423 kts | 333° |
| 2026-05-07 07:51 | 44.12447 | 1.01881 | 24679 ft | 428 kts | 333° |
| 2026-05-07 07:51 | 44.14273 | 1.00673 | 25266 ft | 431 kts | 333° |
| 2026-05-07 07:51 | 44.16994 | 0.98870 | 26111 ft | 435 kts | 332° |
| 2026-05-07 07:51 | 44.19742 | 0.97048 | 26961 ft | 440 kts | 332° |
| 2026-05-07 07:52 | 44.22519 | 0.95204 | 27827 ft | 444 kts | 332° |
| 2026-05-07 07:52 | 44.25320 | 0.93343 | 28660 ft | 448 kts | 332° |
| 2026-05-07 07:52 | 44.28142 | 0.91466 | 29481 ft | 452 kts | 331° |
| 2026-05-07 07:52 | 44.30992 | 0.89566 | 30211 ft | 456 kts | 331° |
| 2026-05-07 07:53 | 44.33850 | 0.87584 | 30847 ft | 460 kts | 329° |
| 2026-05-07 07:53 | 44.36711 | 0.85522 | 31470 ft | 465 kts | 329° |
| 2026-05-07 07:53 | 44.39586 | 0.83420 | 32073 ft | 468 kts | 328° |
| 2026-05-07 07:53 | 44.42483 | 0.81301 | 32692 ft | 472 kts | 328° |
| 2026-05-07 07:54 | 44.45407 | 0.79171 | 33272 ft | 475 kts | 328° |
| 2026-05-07 07:54 | 44.48352 | 0.77032 | 33784 ft | 479 kts | 328° |
| 2026-05-07 07:54 | 44.51315 | 0.74888 | 34397 ft | 479 kts | 328° |
| 2026-05-07 07:54 | 44.54277 | 0.72749 | 34947 ft | 480 kts | 328° |
| 2026-05-07 07:55 | 44.57245 | 0.70608 | 35520 ft | 479 kts | 329° |
| 2026-05-07 07:55 | 44.60207 | 0.68468 | 36064 ft | 480 kts | 329° |
| 2026-05-07 07:55 | 44.63178 | 0.66317 | 36577 ft | 481 kts | 329° |
| 2026-05-07 07:55 | 44.66113 | 0.64188 | 37075 ft | 481 kts | 329° |
| 2026-05-07 07:56 | 44.69089 | 0.62025 | 37590 ft | 482 kts | 329° |
| 2026-05-07 07:56 | 44.72069 | 0.59857 | 38081 ft | 482 kts | 329° |
| 2026-05-07 07:56 | 44.75048 | 0.57687 | 38576 ft | 482 kts | 329° |
| 2026-05-07 07:56 | 44.78027 | 0.55514 | 38967 ft | 483 kts | 329° |
| 2026-05-07 07:57 | 44.81015 | 0.53334 | 39329 ft | 483 kts | 329° |
| 2026-05-07 07:57 | 44.83998 | 0.51155 | 39695 ft | 484 kts | 329° |
| 2026-05-07 07:57 | 44.86991 | 0.48966 | 39956 ft | 486 kts | 329° |
| 2026-05-07 07:58 | 44.92983 | 0.44576 | 40023 ft | 485 kts | 329° |
| 2026-05-07 07:58 | 44.98974 | 0.40178 | 40014 ft | 486 kts | 329° |
| 2026-05-07 07:59 | 45.04964 | 0.35766 | 40019 ft | 486 kts | 329° |
| 2026-05-07 07:59 | 45.10967 | 0.31331 | 40018 ft | 486 kts | 329° |
| 2026-05-07 08:00 | 45.16961 | 0.26894 | 40021 ft | 486 kts | 329° |
| 2026-05-07 08:00 | 45.22959 | 0.22443 | 40025 ft | 486 kts | 329° |
| 2026-05-07 08:01 | 45.28956 | 0.17991 | 40023 ft | 486 kts | 329° |
| 2026-05-07 08:01 | 45.34815 | 0.13248 | 40021 ft | 483 kts | 321° |
| 2026-05-07 08:02 | 45.39807 | 0.06965 | 40022 ft | 478 kts | 313° |
| 2026-05-07 08:02 | 45.44496 | 0.00247 | 40021 ft | 478 kts | 311° |
| 2026-05-07 08:03 | 45.49140 | -0.06555 | 40021 ft | 479 kts | 311° |
| 2026-05-07 08:03 | 45.53791 | -0.13360 | 40020 ft | 479 kts | 311° |
| 2026-05-07 08:04 | 45.58417 | -0.20112 | 40029 ft | 479 kts | 311° |
| 2026-05-07 08:04 | 45.63077 | -0.26925 | 40022 ft | 480 kts | 311° |
| 2026-05-07 08:05 | 45.68004 | -0.33388 | 40020 ft | 482 kts | 318° |
| 2026-05-07 08:05 | 45.73245 | -0.39401 | 40020 ft | 483 kts | 319° |
| 2026-05-07 08:06 | 45.78528 | -0.45347 | 40022 ft | 483 kts | 319° |
| 2026-05-07 08:06 | 45.83811 | -0.51301 | 40023 ft | 483 kts | 319° |
| 2026-05-07 08:07 | 45.89093 | -0.57284 | 40020 ft | 483 kts | 319° |
| 2026-05-07 08:07 | 45.94367 | -0.63275 | 40026 ft | 483 kts | 319° |
| 2026-05-07 08:08 | 45.99636 | -0.69281 | 40026 ft | 483 kts | 319° |
| 2026-05-07 08:08 | 46.04904 | -0.75302 | 40026 ft | 483 kts | 319° |
| 2026-05-07 08:09 | 46.10167 | -0.81336 | 40027 ft | 484 kts | 319° |
| 2026-05-07 08:09 | 46.15435 | -0.87381 | 40026 ft | 484 kts | 319° |
| 2026-05-07 08:10 | 46.20999 | -0.92881 | 40027 ft | 488 kts | 331° |
| 2026-05-07 08:10 | 46.27444 | -0.96074 | 40022 ft | 493 kts | 344° |
| 2026-05-07 08:11 | 46.34152 | -0.98236 | 40023 ft | 494 kts | 346° |
| 2026-05-07 08:11 | 46.40886 | -1.00236 | 40027 ft | 494 kts | 346° |
| 2026-05-07 08:12 | 46.47619 | -1.02258 | 40026 ft | 494 kts | 346° |
| 2026-05-07 08:12 | 46.54347 | -1.04321 | 40024 ft | 494 kts | 346° |
| 2026-05-07 08:13 | 46.61028 | -1.06391 | 40024 ft | 494 kts | 346° |
| 2026-05-07 08:13 | 46.67748 | -1.08481 | 40022 ft | 494 kts | 346° |
| 2026-05-07 08:14 | 46.74470 | -1.10570 | 40023 ft | 494 kts | 346° |
| 2026-05-07 08:14 | 46.81193 | -1.12666 | 40024 ft | 494 kts | 346° |
| 2026-05-07 08:15 | 46.87921 | -1.14768 | 40025 ft | 494 kts | 346° |
| 2026-05-07 08:15 | 46.94645 | -1.16875 | 40027 ft | 494 kts | 346° |
| 2026-05-07 08:16 | 47.01368 | -1.18990 | 40027 ft | 494 kts | 346° |
| 2026-05-07 08:16 | 47.08091 | -1.21107 | 40025 ft | 494 kts | 346° |
| 2026-05-07 08:17 | 47.14813 | -1.23227 | 40024 ft | 494 kts | 346° |
| 2026-05-07 08:17 | 47.21532 | -1.25353 | 40025 ft | 494 kts | 346° |
| 2026-05-07 08:18 | 47.28256 | -1.27492 | 40016 ft | 494 kts | 346° |
| 2026-05-07 08:18 | 47.34985 | -1.29635 | 40023 ft | 494 kts | 346° |
| 2026-05-07 08:19 | 47.41709 | -1.31779 | 40029 ft | 494 kts | 346° |
| 2026-05-07 08:19 | 47.48432 | -1.33928 | 40036 ft | 494 kts | 346° |
| 2026-05-07 08:20 | 47.55151 | -1.36082 | 40046 ft | 494 kts | 346° |
| 2026-05-07 08:20 | 47.61873 | -1.38245 | 40040 ft | 494 kts | 346° |
| 2026-05-07 08:21 | 47.68595 | -1.40408 | 40037 ft | 494 kts | 346° |
| 2026-05-07 08:21 | 47.75444 | -1.41518 | 40040 ft | 496 kts | 354° |
| 2026-05-07 08:22 | 47.82344 | -1.42098 | 40049 ft | 497 kts | 355° |
| 2026-05-07 08:22 | 47.89205 | -1.42589 | 40050 ft | 497 kts | 355° |
| 2026-05-07 08:23 | 47.96104 | -1.43088 | 40046 ft | 496 kts | 355° |
| 2026-05-07 08:23 | 48.03002 | -1.43607 | 40049 ft | 496 kts | 355° |
| 2026-05-07 08:24 | 48.09899 | -1.44104 | 40050 ft | 496 kts | 355° |
| 2026-05-07 08:24 | 48.16800 | -1.44592 | 40047 ft | 497 kts | 355° |
| 2026-05-07 08:25 | 48.23700 | -1.45084 | 40057 ft | 496 kts | 355° |
| 2026-05-07 08:25 | 48.30593 | -1.45579 | 40052 ft | 496 kts | 355° |
| 2026-05-07 08:26 | 48.40929 | -1.46329 | 40056 ft | 496 kts | 355° |
| 2026-05-07 08:26 | 48.47820 | -1.46830 | 40056 ft | 496 kts | 355° |
| 2026-05-07 08:27 | 48.54713 | -1.47329 | 40056 ft | 496 kts | 355° |
| 2026-05-07 08:27 | 48.61603 | -1.47832 | 40055 ft | 496 kts | 355° |
| 2026-05-07 08:28 | 48.68492 | -1.48337 | 40053 ft | 495 kts | 355° |
| 2026-05-07 08:28 | 48.75332 | -1.48838 | 40056 ft | 496 kts | 355° |
| 2026-05-07 08:29 | 48.82217 | -1.49347 | 40055 ft | 495 kts | 355° |
| 2026-05-07 08:29 | 48.89096 | -1.49954 | 40056 ft | 494 kts | 351° |
| 2026-05-07 08:30 | 48.95852 | -1.51782 | 40056 ft | 493 kts | 347° |
| 2026-05-07 08:30 | 49.02573 | -1.53911 | 40055 ft | 493 kts | 346° |
| 2026-05-07 08:31 | 49.09286 | -1.56099 | 40057 ft | 493 kts | 346° |
| 2026-05-07 08:31 | 49.15991 | -1.58283 | 40054 ft | 493 kts | 346° |
| 2026-05-07 08:32 | 49.22706 | -1.60460 | 40049 ft | 492 kts | 346° |
| 2026-05-07 08:32 | 49.29411 | -1.62637 | 40058 ft | 493 kts | 346° |
| 2026-05-07 08:33 | 49.36121 | -1.64820 | 40052 ft | 493 kts | 346° |
| 2026-05-07 08:33 | 49.42771 | -1.66993 | 40050 ft | 493 kts | 346° |
| 2026-05-07 08:34 | 49.48405 | -1.68832 | 40050 ft | 493 kts | 346° |
| 2026-05-07 08:34 | 49.54006 | -1.70664 | 40050 ft | 493 kts | 346° |
| 2026-05-07 08:35 | 49.60783 | -1.72204 | 40050 ft | 494 kts | 358° |
| 2026-05-07 08:35 | 49.67668 | -1.71955 | 40048 ft | 495 kts | 1° |
| 2026-05-07 08:36 | 49.74506 | -1.71383 | 40053 ft | 496 kts | 2° |
| 2026-05-07 08:36 | 49.81385 | -1.70756 | 40051 ft | 495 kts | 2° |
| 2026-05-07 08:37 | 49.88257 | -1.70152 | 40027 ft | 494 kts | 2° |
| 2026-05-07 08:37 | 49.91683 | -1.69858 | 39812 ft | 493 kts | 2° |
| 2026-05-07 08:37 | 49.95110 | -1.69566 | 39584 ft | 493 kts | 2° |
| 2026-05-07 08:38 | 49.98534 | -1.69141 | 39368 ft | 494 kts | 7° |
| 2026-05-07 08:38 | 50.01896 | -1.68074 | 39107 ft | 493 kts | 14° |
| 2026-05-07 08:38 | 50.05188 | -1.66605 | 38485 ft | 491 kts | 16° |
| 2026-05-07 08:38 | 50.08449 | -1.65057 | 37737 ft | 489 kts | 16° |
| 2026-05-07 08:39 | 50.11698 | -1.63492 | 37021 ft | 488 kts | 16° |
| 2026-05-07 08:39 | 50.14936 | -1.61923 | 36299 ft | 487 kts | 16° |
| 2026-05-07 08:39 | 50.18169 | -1.60353 | 35558 ft | 487 kts | 16° |
| 2026-05-07 08:39 | 50.21400 | -1.58783 | 34790 ft | 487 kts | 16° |
| 2026-05-07 08:40 | 50.23591 | -1.57717 | 34195 ft | 489 kts | 16° |
| 2026-05-07 08:40 | 50.26844 | -1.56132 | 33212 ft | 491 kts | 16° |
| 2026-05-07 08:40 | 50.30104 | -1.54545 | 32275 ft | 490 kts | 15° |
| 2026-05-07 08:40 | 50.33315 | -1.52973 | 31359 ft | 490 kts | 15° |
| 2026-05-07 08:41 | 50.36574 | -1.51375 | 30380 ft | 491 kts | 15° |
| 2026-05-07 08:41 | 50.39837 | -1.49774 | 29261 ft | 492 kts | 15° |
| 2026-05-07 08:41 | 50.43100 | -1.48172 | 28372 ft | 488 kts | 16° |
| 2026-05-07 08:41 | 50.46318 | -1.46589 | 27678 ft | 481 kts | 16° |
| 2026-05-07 08:42 | 50.49490 | -1.45024 | 26975 ft | 474 kts | 16° |
| 2026-05-07 08:42 | 50.52614 | -1.43447 | 26241 ft | 469 kts | 18° |
| 2026-05-07 08:42 | 50.55583 | -1.41367 | 25541 ft | 465 kts | 26° |
| 2026-05-07 08:42 | 50.58421 | -1.38977 | 24826 ft | 461 kts | 27° |
| 2026-05-07 08:43 | 50.61222 | -1.36558 | 24133 ft | 457 kts | 28° |
| 2026-05-07 08:43 | 50.63995 | -1.34161 | 23392 ft | 453 kts | 28° |
| 2026-05-07 08:43 | 50.66739 | -1.31792 | 22656 ft | 447 kts | 28° |
| 2026-05-07 08:43 | 50.69450 | -1.29451 | 21960 ft | 441 kts | 28° |
| 2026-05-07 08:44 | 50.72126 | -1.27139 | 21277 ft | 436 kts | 28° |
| 2026-05-07 08:44 | 50.74767 | -1.24855 | 20584 ft | 431 kts | 28° |
| 2026-05-07 08:44 | 50.77378 | -1.22579 | 19917 ft | 426 kts | 29° |
| 2026-05-07 08:44 | 50.79871 | -1.20080 | 19235 ft | 423 kts | 33° |
| 2026-05-07 08:45 | 50.82303 | -1.17494 | 18527 ft | 420 kts | 33° |
| 2026-05-07 08:45 | 50.84724 | -1.14930 | 17778 ft | 418 kts | 33° |
| 2026-05-07 08:45 | 50.87135 | -1.12402 | 17071 ft | 413 kts | 33° |
| 2026-05-07 08:45 | 50.89523 | -1.09912 | 16368 ft | 409 kts | 33° |
| 2026-05-07 08:46 | 50.91897 | -1.07449 | 15665 ft | 406 kts | 33° |
| 2026-05-07 08:46 | 50.94247 | -1.05006 | 14966 ft | 403 kts | 33° |
| 2026-05-07 08:46 | 50.96582 | -1.02576 | 14253 ft | 399 kts | 33° |
| 2026-05-07 08:46 | 50.98888 | -1.00171 | 13514 ft | 395 kts | 33° |
| 2026-05-07 08:47 | 51.01022 | -0.97484 | 12845 ft | 388 kts | 45° |
| 2026-05-07 08:47 | 51.02868 | -0.94356 | 12555 ft | 390 kts | 49° |
| 2026-05-07 08:47 | 51.04668 | -0.91156 | 12282 ft | 382 kts | 48° |
| 2026-05-07 08:47 | 51.06392 | -0.88080 | 12028 ft | 363 kts | 48° |
| 2026-05-07 08:48 | 51.08034 | -0.85145 | 11782 ft | 347 kts | 48° |
| 2026-05-07 08:48 | 51.09618 | -0.82325 | 11593 ft | 342 kts | 47° |
| 2026-05-07 08:48 | 51.11333 | -0.79903 | 11356 ft | 316 kts | 34° |
| 2026-05-07 08:48 | 51.13224 | -0.78352 | 10696 ft | 300 kts | 18° |
| 2026-05-07 08:49 | 51.15249 | -0.77753 | 9844 ft | 293 kts | 5° |
| 2026-05-07 08:49 | 51.17268 | -0.77533 | 8921 ft | 289 kts | 3° |
| 2026-05-07 08:49 | 51.19264 | -0.77371 | 7995 ft | 285 kts | 2° |
| 2026-05-07 08:49 | 51.21231 | -0.77219 | 7109 ft | 282 kts | 2° |
| 2026-05-07 08:50 | 51.23179 | -0.77066 | 6243 ft | 278 kts | 1° |
| 2026-05-07 08:50 | 51.25070 | -0.76919 | 5815 ft | 271 kts | 1° |
| 2026-05-07 08:50 | 51.26951 | -0.76771 | 5486 ft | 269 kts | 1° |
| 2026-05-07 08:50 | 51.28814 | -0.76627 | 5157 ft | 267 kts | 1° |
| 2026-05-07 08:51 | 51.30669 | -0.76482 | 4828 ft | 266 kts | 1° |
| 2026-05-07 08:51 | 51.32511 | -0.76338 | 4498 ft | 264 kts | 1° |
| 2026-05-07 08:51 | 51.34343 | -0.76198 | 4194 ft | 262 kts | 1° |
| 2026-05-07 08:51 | 51.36113 | -0.76059 | 4080 ft | 247 kts | 1° |
| 2026-05-07 08:52 | 51.37758 | -0.75926 | 3971 ft | 234 kts | 1° |
| 2026-05-07 08:52 | 51.39341 | -0.75799 | 3878 ft | 221 kts | 1° |
| 2026-05-07 08:52 | 51.40831 | -0.75677 | 3788 ft | 209 kts | 1° |
| 2026-05-07 08:52 | 51.42291 | -0.75561 | 3673 ft | 211 kts | 1° |
| 2026-05-07 08:53 | 51.43760 | -0.75449 | 3564 ft | 214 kts | 1° |
| 2026-05-07 08:53 | 51.45239 | -0.75339 | 3469 ft | 211 kts | 1° |
| 2026-05-07 08:53 | 51.46651 | -0.74788 | 3366 ft | 215 kts | 31° |
| 2026-05-07 08:53 | 51.47588 | -0.72965 | 3242 ft | 214 kts | 66° |
| 2026-05-07 08:54 | 51.47805 | -0.70650 | 2954 ft | 210 kts | 96° |
| 2026-05-07 08:54 | 51.47684 | -0.68332 | 2613 ft | 207 kts | 94° |
| 2026-05-07 08:54 | 51.47676 | -0.66089 | 2319 ft | 193 kts | 89° |
| 2026-05-07 08:54 | 51.47703 | -0.64039 | 2048 ft | 175 kts | 92° |
| 2026-05-07 08:55 | 51.47703 | -0.62157 | 1819 ft | 162 kts | 91° |
| 2026-05-07 08:55 | 51.47705 | -0.60422 | 1586 ft | 149 kts | 90° |
| 2026-05-07 08:55 | 51.47710 | -0.58820 | 1397 ft | 139 kts | 91° |
| 2026-05-07 08:55 | 51.47716 | -0.57313 | 1200 ft | 131 kts | 91° |
| 2026-05-07 08:56 | 51.47721 | -0.55894 | 1018 ft | 126 kts | 92° |
| 2026-05-07 08:56 | 51.47731 | -0.54506 | 820 ft | 124 kts | 91° |
| 2026-05-07 08:56 | 51.47737 | -0.53122 | 684 ft | 126 kts | 91° |
| 2026-05-07 08:56 | 51.47740 | -0.51730 | 536 ft | 125 kts | 91° |
| 2026-05-07 08:57 | 51.47753 | -0.50329 | 353 ft | 125 kts | 91° |
| 2026-05-07 08:57 | 51.47755 | -0.48945 | 201 ft | 124 kts | 91° |
| 2026-05-07 08:57 | 51.47758 | -0.47580 | 99 ft | 117 kts | 93° |
| 2026-05-07 08:57 | 51.47761 | -0.46345 | 209 ft | 122 kts | 91° |
| 2026-05-07 08:58 | 51.47766 | -0.44595 | 903 ft | 189 kts | 91° |
| 2026-05-07 08:58 | 51.47708 | -0.42404 | 1921 ft | 180 kts | 97° |
| 2026-05-07 08:58 | 51.47867 | -0.40429 | 2370 ft | 195 kts | 68° |
| 2026-05-07 08:58 | 51.48830 | -0.38696 | 2861 ft | 224 kts | 34° |
| 2026-05-07 08:59 | 51.50329 | -0.37931 | 2993 ft | 230 kts | 2° |
| 2026-05-07 08:59 | 51.51859 | -0.38506 | 2997 ft | 229 kts | 330° |
| 2026-05-07 08:59 | 51.53015 | -0.40333 | 2994 ft | 244 kts | 298° |
| 2026-05-07 08:59 | 51.53527 | -0.43011 | 2994 ft | 259 kts | 276° |
| 2026-05-07 09:00 | 51.53661 | -0.45933 | 2990 ft | 264 kts | 271° |
| 2026-05-07 09:00 | 51.53733 | -0.48893 | 2996 ft | 265 kts | 271° |
| 2026-05-07 09:00 | 51.53797 | -0.51858 | 2993 ft | 266 kts | 271° |
| 2026-05-07 09:00 | 51.53855 | -0.54821 | 2993 ft | 264 kts | 270° |
| 2026-05-07 09:01 | 51.53919 | -0.57719 | 2994 ft | 257 kts | 271° |
| 2026-05-07 09:01 | 51.53879 | -0.60573 | 2932 ft | 256 kts | 263° |
| 2026-05-07 09:01 | 51.53669 | -0.63379 | 2548 ft | 244 kts | 261° |
| 2026-05-07 09:01 | 51.53451 | -0.65921 | 2161 ft | 215 kts | 258° |
| 2026-05-07 09:02 | 51.52844 | -0.67855 | 1989 ft | 180 kts | 222° |
| 2026-05-07 09:02 | 51.51815 | -0.68609 | 1993 ft | 158 kts | 185° |
| 2026-05-07 09:02 | 51.50734 | -0.68570 | 2001 ft | 154 kts | 173° |
| 2026-05-07 09:02 | 51.49640 | -0.68341 | 2014 ft | 166 kts | 171° |
| 2026-05-07 09:03 | 51.48532 | -0.67685 | 1986 ft | 174 kts | 149° |
| 2026-05-07 09:03 | 51.47852 | -0.66091 | 2001 ft | 178 kts | 111° |
| 2026-05-07 09:03 | 51.47622 | -0.64135 | 1990 ft | 182 kts | 89° |
| 2026-05-07 09:03 | 51.47740 | -0.62156 | 1863 ft | 171 kts | 86° |
| 2026-05-07 09:04 | 51.47745 | -0.60335 | 1606 ft | 160 kts | 93° |
| 2026-05-07 09:04 | 51.47720 | -0.58620 | 1383 ft | 149 kts | 92° |
| 2026-05-07 09:04 | 51.47718 | -0.57011 | 1172 ft | 140 kts | 91° |
| 2026-05-07 09:04 | 51.47726 | -0.55497 | 972 ft | 132 kts | 91° |
| 2026-05-07 09:05 | 51.47727 | -0.54061 | 756 ft | 125 kts | 93° |
| 2026-05-07 09:05 | 51.47732 | -0.52682 | 618 ft | 124 kts | 92° |
| 2026-05-07 09:05 | 51.47742 | -0.51308 | 466 ft | 123 kts | 91° |
| 2026-05-07 09:05 | 51.47749 | -0.49933 | 300 ft | 123 kts | 92° |
| 2026-05-07 09:06 | 51.47754 | -0.48558 | 141 ft | 123 kts | 92° |
| 2026-05-07 09:06 | 51.47756 | -0.47235 | 95 ft | 103 kts | 90° |
| 2026-05-07 09:06 | 51.47758 | -0.46480 | 96 ft | 41 kts | 90° |
| 2026-05-07 09:06 | 51.47725 | -0.46172 | 95 ft | 23 kts | 135° |
| 2026-05-07 09:07 | 51.47634 | -0.46073 | 95 ft | 12 kts | 163° |
| 2026-05-07 09:07 | 51.47594 | -0.46165 | 96 ft | 14 kts | 269° |
| 2026-05-07 09:07 | 51.47593 | -0.46350 | 97 ft | 19 kts | 269° |
| 2026-05-07 09:07 | 51.47592 | -0.46596 | 92 ft | 25 kts | 269° |
| 2026-05-07 09:08 | 51.47590 | -0.46898 | 93 ft | 29 kts | 269° |
| 2026-05-07 09:08 | 51.47581 | -0.47232 | 96 ft | 31 kts | 270° |
| 2026-05-07 09:08 | 51.47581 | -0.47592 | 92 ft | 31 kts | 269° |
| 2026-05-07 09:08 | 51.47579 | -0.47870 | 95 ft | 20 kts | 270° |
| 2026-05-07 09:09 | 51.47578 | -0.48057 | 92 ft | 8 kts | 269° |
| 2026-05-07 09:09 | 51.47579 | -0.48174 | 94 ft | 14 kts | 270° |
| 2026-05-07 09:09 | 51.47574 | -0.48337 | 95 ft | 8 kts | 244° |
| 2026-05-07 09:09 | 51.47510 | -0.48360 | 93 ft | 12 kts | 178° |
| 2026-05-07 09:10 | 51.47404 | -0.48359 | 96 ft | 18 kts | 180° |
| 2026-05-07 09:10 | 51.47296 | -0.48357 | 96 ft | 9 kts | 179° |
| 2026-05-07 09:10 | 51.47287 | -0.48357 | 92 ft | 1 kts | 179° |
| 2026-05-07 09:10 | 51.47254 | -0.48335 | 93 ft | 8 kts | 134° |
| 2026-05-07 09:11 | 51.47248 | -0.48284 | 95 ft | 5 kts | 84° |
| 2026-05-07 09:11 | 51.47248 | -0.48238 | 92 ft | 0 kts | 90° |